Time,TemperatureF,DewpointF,PressureIn,WindDirection,WindDirectionDegrees,WindSpeedMPH,WindSpeedGustMPH,Humidity,HourlyPrecipIn,Conditions,Clouds,dailyrainin,SoftwareType,DateUTC
2013-04-06 00:02:00,50.0,50.0,29.92,North,0,0.0,0.0,100,0.00,,,0.47,,2013-04-06 07:02:00,
2013-04-06 00:11:00,50.0,50.0,29.92,North,0,0.0,0.0,100,0.00,,,0.47,,2013-04-06 07:11:00,
2013-04-06 00:22:00,50.0,50.0,29.92,South,184,1.0,12.0,100,0.00,,,0.47,,2013-04-06 07:22:00,
2013-04-06 00:32:00,50.0,50.0,29.93,North,0,0.0,0.0,100,0.00,,,0.47,,2013-04-06 07:32:00,
2013-04-06 00:42:00,50.0,50.0,29.93,North,0,0.0,0.0,100,0.00,,,0.47,,2013-04-06 07:42:00,
2013-04-06 00:52:00,50.0,50.0,29.93,North,0,0.0,0.0,100,0.00,,,0.47,,2013-04-06 07:52:00,
2013-04-06 01:01:00,50.0,50.0,29.93,North,0,0.0,0.0,100,0.00,,,0.47,,2013-04-06 08:01:00,
2013-04-06 01:11:00,50.0,50.0,29.93,North,0,0.0,0.0,100,0.00,,,0.47,,2013-04-06 08:11:00,
2013-04-06 01:21:00,50.0,50.0,29.94,North,0,0.0,0.0,100,0.00,,,0.47,,2013-04-06 08:21:00,
2013-04-06 01:32:00,50.0,50.0,29.95,North,0,0.0,0.0,100,0.00,,,0.46,,2013-04-06 08:32:00,
2013-04-06 01:42:00,50.0,50.0,29.95,North,0,0.0,0.0,100,0.00,,,0.46,,2013-04-06 08:42:00,
2013-04-06 01:51:00,50.0,50.0,29.96,North,0,0.0,0.0,100,0.00,,,0.46,,2013-04-06 08:51:00,
2013-04-06 02:02:00,50.0,50.0,29.96,North,0,0.0,0.0,100,0.00,,,0.46,,2013-04-06 09:02:00,
2013-04-06 02:21:00,50.0,50.0,29.96,North,0,0.0,0.0,100,0.00,,,0.46,,2013-04-06 09:21:00,
2013-04-06 02:32:00,50.0,50.0,29.96,North,0,0.0,0.0,100,0.00,,,0.45,,2013-04-06 09:32:00,
2013-04-06 02:42:00,50.0,50.0,29.96,North,0,0.0,0.0,100,0.00,,,0.45,,2013-04-06 09:42:00,
2013-04-06 02:53:00,50.0,50.0,29.96,North,0,0.0,0.0,100,0.00,,,0.45,,2013-04-06 09:53:00,
2013-04-06 03:02:00,50.0,50.0,29.96,North,0,0.0,0.0,100,0.00,,,0.45,,2013-04-06 10:02:00,
2013-04-06 03:12:00,50.0,50.0,29.96,North,0,0.0,0.0,100,0.00,,,0.45,,2013-04-06 10:12:00,
2013-04-06 03:22:00,50.0,50.0,29.97,North,0,0.0,0.0,100,0.00,,,0.45,,2013-04-06 10:22:00,
2013-04-06 03:31:00,50.0,50.0,29.97,North,0,0.0,0.0,100,0.00,,,0.45,,2013-04-06 10:31:00,
2013-04-06 03:42:00,50.0,50.0,29.97,North,0,0.0,0.0,100,0.00,,,0.45,,2013-04-06 10:42:00,
2013-04-06 03:52:00,50.0,50.0,29.98,North,0,0.0,0.0,100,0.00,,,0.45,,2013-04-06 10:52:00,
2013-04-06 04:02:00,50.0,50.0,29.99,North,0,0.0,0.0,100,0.00,,,0.45,,2013-04-06 11:02:00,
2013-04-06 04:11:00,50.0,50.0,29.99,North,0,0.0,0.0,100,0.00,,,0.45,,2013-04-06 11:11:00,
2013-04-06 04:22:00,50.0,50.0,30.00,North,0,0.0,0.0,100,0.00,,,0.45,,2013-04-06 11:22:00,
2013-04-06 04:32:00,50.0,50.0,30.00,North,0,0.0,0.0,100,0.00,,,0.44,,2013-04-06 11:32:00,
2013-04-06 04:42:00,50.0,50.0,30.00,North,0,0.0,0.0,100,0.00,,,0.44,,2013-04-06 11:42:00,
2013-04-06 04:52:00,50.0,50.0,30.00,North,0,0.0,0.0,100,0.00,,,0.44,,2013-04-06 11:52:00,
2013-04-06 05:01:00,50.0,50.0,30.00,North,0,0.0,0.0,100,0.00,,,0.44,,2013-04-06 12:01:00,
2013-04-06 05:11:00,50.0,50.0,30.00,North,0,0.0,0.0,100,0.00,,,0.44,,2013-04-06 12:11:00,
2013-04-06 05:21:00,49.0,49.0,30.01,North,0,0.0,0.0,100,0.00,,,0.44,,2013-04-06 12:21:00,
2013-04-06 05:32:00,49.0,49.0,30.01,North,0,0.0,0.0,100,0.00,,,0.43,,2013-04-06 12:32:00,
2013-04-06 05:42:00,49.0,49.0,30.01,North,0,0.0,0.0,100,0.00,,,0.43,,2013-04-06 12:42:00,
2013-04-06 05:52:00,49.0,49.0,30.01,North,0,0.0,0.0,100,0.00,,,0.43,,2013-04-06 12:52:00,
2013-04-06 06:02:00,50.0,50.0,30.01,North,0,0.0,0.0,100,0.00,,,0.43,,2013-04-06 13:02:00,
2013-04-06 06:11:00,50.0,50.0,30.01,North,0,0.0,0.0,100,0.00,,,0.43,,2013-04-06 13:11:00,
2013-04-06 06:22:00,49.0,49.0,30.02,North,0,0.0,0.0,100,0.00,,,0.43,,2013-04-06 13:22:00,
2013-04-06 06:32:00,49.0,49.0,30.03,North,0,0.0,0.0,100,0.00,,,0.43,,2013-04-06 13:32:00,
2013-04-06 06:42:00,49.0,49.0,30.03,North,0,0.0,0.0,100,0.00,,,0.43,,2013-04-06 13:42:00,
2013-04-06 06:52:00,49.0,49.0,30.03,North,0,0.0,0.0,100,0.00,,,0.43,,2013-04-06 13:52:00,
2013-04-06 07:02:00,49.0,49.0,30.03,North,0,0.0,0.0,100,0.00,,,0.43,,2013-04-06 14:02:00,
2013-04-06 07:11:00,49.0,49.0,30.04,North,0,0.0,0.0,100,0.00,,,0.43,,2013-04-06 14:11:00,
2013-04-06 07:21:00,49.0,49.0,30.04,North,0,0.0,0.0,100,0.00,,,0.43,,2013-04-06 14:21:00,
2013-04-06 07:32:00,49.0,49.0,30.04,North,0,0.0,0.0,100,0.00,,,0.43,,2013-04-06 14:32:00,
2013-04-06 07:42:00,49.0,49.0,30.04,North,0,0.0,0.0,100,0.00,,,0.43,,2013-04-06 14:42:00,
2013-04-06 07:52:00,49.0,49.0,30.04,North,0,0.0,0.0,100,0.00,,,0.43,,2013-04-06 14:52:00,
2013-04-06 08:01:00,50.0,50.0,30.04,North,0,0.0,0.0,100,0.00,,,0.43,,2013-04-06 15:01:00,
2013-04-06 08:11:00,50.0,50.0,30.04,North,0,0.0,0.0,100,0.00,,,0.43,,2013-04-06 15:11:00,
2013-04-06 08:21:00,50.0,50.0,30.04,North,0,0.0,0.0,100,0.00,,,0.43,,2013-04-06 15:21:00,
2013-04-06 08:32:00,50.0,50.0,30.05,North,0,0.0,0.0,100,0.00,,,0.43,,2013-04-06 15:32:00,
2013-04-06 08:42:00,50.0,50.0,30.05,North,0,0.0,0.0,100,0.00,,,0.43,,2013-04-06 15:42:00,
2013-04-06 08:53:00,50.0,50.0,30.05,North,0,0.0,0.0,100,0.00,,,0.43,,2013-04-06 15:53:00,
2013-04-06 09:03:00,50.0,50.0,30.06,North,0,0.0,0.0,100,0.00,,,0.43,,2013-04-06 16:03:00,
2013-04-06 09:15:00,50.0,50.0,30.06,North,0,0.0,0.0,100,0.00,,,0.43,,2013-04-06 16:15:00,
2013-04-06 09:22:00,50.0,50.0,30.05,North,0,0.0,0.0,100,0.00,,,0.43,,2013-04-06 16:22:00,
2013-04-06 09:32:00,50.0,50.0,30.06,North,0,0.0,0.0,100,0.00,,,0.40,,2013-04-06 16:32:00,
2013-04-06 09:41:00,50.0,50.0,30.06,North,0,0.0,0.0,100,0.00,,,0.40,,2013-04-06 16:41:00,
2013-04-06 09:53:00,50.0,50.0,30.06,North,0,0.0,0.0,100,0.00,,,0.40,,2013-04-06 16:53:00,
2013-04-06 10:01:00,50.0,50.0,30.06,South,172,0.0,1.0,100,0.00,,,0.40,,2013-04-06 17:01:00,
2013-04-06 10:12:00,50.0,50.0,30.06,South,172,0.0,1.0,100,0.00,,,0.40,,2013-04-06 17:12:00,
2013-04-06 10:22:00,51.0,51.0,30.06,North,0,0.0,0.0,100,0.00,,,0.40,,2013-04-06 17:22:00,
2013-04-06 10:32:00,51.0,51.0,30.07,SW,233,4.0,12.0,100,0.00,,,0.40,,2013-04-06 17:32:00,
2013-04-06 10:42:00,51.0,51.0,30.07,SW,233,4.0,12.0,100,0.00,,,0.40,,2013-04-06 17:42:00,
2013-04-06 10:52:00,51.0,51.0,30.07,SSW,200,1.0,16.0,100,0.00,,,0.40,,2013-04-06 17:52:00,
2013-04-06 11:01:00,51.0,51.0,30.07,North,357,2.0,16.0,100,0.00,,,0.40,,2013-04-06 18:01:00,
2013-04-06 11:12:00,51.0,51.0,30.07,North,357,2.0,16.0,100,0.00,,,0.40,,2013-04-06 18:12:00,
2013-04-06 11:22:00,51.0,51.0,30.07,West,266,6.0,18.0,100,0.00,,,0.40,,2013-04-06 18:22:00,
2013-04-06 11:32:00,51.0,51.0,30.08,West,266,9.0,19.0,100,0.00,,,0.39,,2013-04-06 18:32:00,
2013-04-06 11:42:00,51.0,51.0,30.08,West,266,9.0,19.0,100,0.00,,,0.39,,2013-04-06 18:42:00,
2013-04-06 11:52:00,51.0,51.0,30.08,NNW,338,3.0,12.0,100,0.00,,,0.39,,2013-04-06 18:52:00,
2013-04-06 12:02:00,51.0,51.0,30.09,NNW,330,8.0,17.0,100,0.00,,,0.39,,2013-04-06 19:02:00,
2013-04-06 12:11:00,51.0,51.0,30.09,NNW,330,8.0,17.0,100,0.00,,,0.39,,2013-04-06 19:11:00,
2013-04-06 12:22:00,51.0,51.0,30.09,WNW,295,7.0,21.0,100,0.00,,,0.39,,2013-04-06 19:22:00,
2013-04-06 12:32:00,51.0,51.0,30.09,SE,124,1.0,17.0,100,0.00,,,0.38,,2013-04-06 19:32:00,
2013-04-06 12:41:00,51.0,51.0,30.09,SE,124,1.0,17.0,100,0.00,,,0.38,,2013-04-06 19:41:00,
2013-04-06 12:53:00,51.0,51.0,30.09,North,357,2.0,17.0,100,0.00,,,0.38,,2013-04-06 19:53:00,
2013-04-06 13:02:00,51.0,51.0,30.09,North,357,2.0,9.0,100,0.00,,,0.38,,2013-04-06 20:02:00,
2013-04-06 13:12:00,51.0,51.0,30.09,North,357,2.0,9.0,100,0.00,,,0.38,,2013-04-06 20:12:00,
2013-04-06 13:22:00,51.0,51.0,30.09,North,0,0.0,0.0,100,0.00,,,0.38,,2013-04-06 20:22:00,
2013-04-06 13:31:00,51.0,51.0,30.09,North,0,0.0,0.0,100,0.00,,,0.38,,2013-04-06 20:31:00,
2013-04-06 13:41:00,51.0,51.0,30.09,North,0,0.0,0.0,100,0.00,,,0.38,,2013-04-06 20:41:00,
2013-04-06 13:52:00,51.0,51.0,30.09,South,183,0.0,13.0,100,0.00,,,0.38,,2013-04-06 20:52:00,
2013-04-06 14:01:00,52.0,52.0,30.08,North,0,0.0,6.0,100,0.00,,,0.38,,2013-04-06 21:01:00,
2013-04-06 14:12:00,51.0,51.0,30.08,North,0,0.0,0.0,100,0.00,,,0.38,,2013-04-06 21:12:00,
2013-04-06 14:22:00,51.0,51.0,30.08,North,0,0.0,0.0,100,0.00,,,0.38,,2013-04-06 21:22:00,
2013-04-06 14:32:00,51.0,51.0,30.08,North,0,0.0,0.0,100,0.00,,,0.32,,2013-04-06 21:32:00,
2013-04-06 14:43:00,51.0,51.0,30.08,North,0,0.0,0.0,100,0.00,,,0.32,,2013-04-06 21:43:00,
2013-04-06 14:52:00,51.0,51.0,30.08,North,0,0.0,0.0,100,0.00,,,0.32,,2013-04-06 21:52:00,
2013-04-06 15:02:00,50.0,50.0,30.07,North,0,0.0,0.0,100,0.00,,,0.32,,2013-04-06 22:02:00,
2013-04-06 15:12:00,50.0,50.0,30.07,North,0,0.0,0.0,100,0.00,,,0.32,,2013-04-06 22:12:00,
2013-04-06 15:22:00,50.0,50.0,30.06,North,0,0.0,0.0,100,0.00,,,0.32,,2013-04-06 22:22:00,
2013-04-06 15:33:00,50.0,50.0,30.05,North,0,0.0,2.0,100,0.00,,,0.24,,2013-04-06 22:33:00,
2013-04-06 15:42:00,50.0,50.0,30.05,North,0,0.0,2.0,100,0.00,,,0.24,,2013-04-06 22:42:00,
2013-04-06 15:53:00,50.0,50.0,30.04,North,357,0.0,9.0,100,0.01,,,0.24,,2013-04-06 22:53:00,
2013-04-06 16:02:00,50.0,50.0,30.03,SW,224,0.0,10.0,100,0.03,,,0.24,,2013-04-06 23:02:00,
2013-04-06 16:12:00,50.0,50.0,30.03,SW,224,0.0,10.0,100,0.03,,,0.24,,2013-04-06 23:12:00,
2013-04-06 16:22:00,50.0,50.0,30.03,North,0,0.0,16.0,100,0.03,,,0.24,,2013-04-06 23:22:00,
2013-04-06 16:32:00,50.0,50.0,30.03,North,0,0.0,16.0,100,0.03,,,0.24,,2013-04-06 23:32:00,
2013-04-06 16:42:00,50.0,50.0,30.03,North,0,0.0,16.0,100,0.03,,,0.24,,2013-04-06 23:42:00,
2013-04-06 16:53:00,50.0,50.0,30.03,North,0,0.0,12.0,100,0.02,,,0.20,,2013-04-06 23:53:00,
2013-04-06 17:01:00,50.0,50.0,30.03,North,357,1.0,8.0,100,0.00,,,0.20,,2013-04-07 00:01:00,
2013-04-06 17:12:00,50.0,50.0,30.03,North,357,1.0,8.0,100,0.00,,,0.20,,2013-04-07 00:12:00,
2013-04-06 17:22:00,48.0,48.0,30.02,North,0,0.0,11.0,100,0.03,,,0.20,,2013-04-07 00:22:00,
2013-04-06 17:32:00,48.0,48.0,30.02,North,357,0.0,9.0,100,0.05,,,0.22,,2013-04-07 00:32:00,
2013-04-06 17:42:00,48.0,48.0,30.02,North,357,0.0,9.0,100,0.05,,,0.22,,2013-04-07 00:42:00,
2013-04-06 17:52:00,48.0,48.0,30.02,North,0,0.0,0.0,100,0.07,,,0.22,,2013-04-07 00:52:00,
2013-04-06 18:01:00,48.0,48.0,30.01,ENE,60,2.0,10.0,100,0.08,,,0.22,,2013-04-07 01:01:00,
2013-04-06 18:11:00,48.0,48.0,30.01,ENE,60,2.0,10.0,100,0.08,,,0.22,,2013-04-07 01:11:00,
2013-04-06 18:22:00,47.0,47.0,30.00,North,0,0.0,17.0,100,0.08,,,0.22,,2013-04-07 01:22:00,
2013-04-06 18:31:00,47.0,47.0,29.99,North,357,1.0,18.0,100,0.06,,,0.27,,2013-04-07 01:31:00,
2013-04-06 18:42:00,47.0,47.0,29.99,North,357,1.0,18.0,100,0.06,,,0.27,,2013-04-07 01:42:00,
2013-04-06 18:52:00,47.0,47.0,29.98,West,266,4.0,18.0,100,0.06,,,0.27,,2013-04-07 01:52:00,
2013-04-06 19:02:00,47.0,47.0,29.98,WSW,252,3.0,15.0,100,0.06,,,0.27,,2013-04-07 02:02:00,
2013-04-06 19:11:00,47.0,47.0,29.98,WSW,252,3.0,15.0,100,0.06,,,0.27,,2013-04-07 02:11:00,
2013-04-06 19:22:00,47.0,47.0,29.96,South,179,2.0,7.0,100,0.04,,,0.27,,2013-04-07 02:22:00,
2013-04-06 19:42:00,47.0,47.0,29.95,SSE,166,1.0,9.0,100,0.06,,,0.30,,2013-04-07 02:42:00,
2013-04-06 19:52:00,47.0,47.0,29.93,South,186,0.0,4.0,100,0.06,,,0.30,,2013-04-07 02:52:00,
2013-04-06 20:01:00,48.0,48.0,29.92,North,0,0.0,8.0,100,0.09,,,0.30,,2013-04-07 03:01:00,
2013-04-06 20:11:00,48.0,48.0,29.92,North,0,0.0,8.0,100,0.09,,,0.30,,2013-04-07 03:11:00,
2013-04-06 20:21:00,48.0,48.0,29.90,North,0,0.0,11.0,100,0.14,,,0.32,,2013-04-07 03:21:00,
2013-04-06 20:33:00,48.0,48.0,29.89,North,357,7.0,27.0,100,0.13,,,0.36,,2013-04-07 03:33:00,
2013-04-06 20:42:00,48.0,48.0,29.89,North,357,7.0,27.0,100,0.13,,,0.36,,2013-04-07 03:42:00,
2013-04-06 20:53:00,48.0,48.0,29.89,North,0,0.0,0.0,100,0.13,,,0.36,,2013-04-07 03:53:00,
2013-04-06 21:02:00,48.0,48.0,29.87,South,172,3.0,28.0,100,0.10,,,0.36,,2013-04-07 04:02:00,
2013-04-06 21:12:00,48.0,48.0,29.87,South,172,3.0,28.0,100,0.10,,,0.36,,2013-04-07 04:12:00,
2013-04-06 21:23:00,48.0,48.0,29.86,North,357,4.0,16.0,100,0.06,,,0.36,,2013-04-07 04:23:00,
2013-04-06 21:32:00,48.0,48.0,29.83,NNE,28,1.0,9.0,100,0.03,,,0.38,,2013-04-07 04:32:00,
2013-04-06 21:43:00,48.0,48.0,29.83,NNE,28,1.0,9.0,100,0.03,,,0.38,,2013-04-07 04:43:00,
2013-04-06 21:52:00,49.0,49.0,29.82,North,357,0.0,22.0,100,0.01,,,0.38,,2013-04-07 04:52:00,
2013-04-06 22:02:00,49.0,49.0,29.80,South,170,0.0,30.0,100,0.00,,,0.38,,2013-04-07 05:02:00,
2013-04-06 22:11:00,49.0,49.0,29.80,South,170,0.0,30.0,100,0.00,,,0.38,,2013-04-07 05:11:00,
2013-04-06 22:22:00,49.0,49.0,29.79,North,0,0.0,24.0,100,0.00,,,0.38,,2013-04-07 05:22:00,
2013-04-06 22:32:00,49.0,49.0,29.78,North,0,0.0,26.0,100,0.00,,,0.36,,2013-04-07 05:32:00,
2013-04-06 22:42:00,49.0,49.0,29.78,North,0,0.0,26.0,100,0.00,,,0.36,,2013-04-07 05:42:00,
2013-04-06 22:52:00,50.0,50.0,29.78,North,357,0.0,26.0,100,0.00,,,0.36,,2013-04-07 05:52:00,
2013-04-06 23:01:00,50.0,50.0,29.76,North,357,0.0,34.0,100,0.00,,,0.37,,2013-04-07 06:01:00,
2013-04-06 23:12:00,50.0,50.0,29.76,North,357,0.0,34.0,100,0.00,,,0.37,,2013-04-07 06:12:00,
2013-04-06 23:21:00,50.0,50.0,29.75,North,357,0.0,41.0,100,0.01,,,0.37,,2013-04-07 06:21:00,
2013-04-06 23:32:00,50.0,50.0,29.75,North,357,0.0,13.0,100,0.01,,,0.38,,2013-04-07 06:32:00,
2013-04-06 23:42:00,50.0,50.0,29.75,North,357,0.0,13.0,100,0.01,,,0.38,,2013-04-07 06:42:00,
2013-04-06 23:52:00,50.0,50.0,29.75,North,0,0.0,33.0,100,0.03,,,0.39,,2013-04-07 06:52:00,